Time;durP1;ratioP1;P1;durP2;ratioP2;P2;SDS_P1;SDS_P2;PMS_P1;PMS_P2;Temp;Humidity;BMP_temperature;BMP_pressure;BME280_temperature;BME280_humidity;BME280_pressure;Samples;Min_cycle;Max_cycle;Signal;HPM_P1;HPM_P2
2022/06/01 00:00:51;;;;;;;9.03;2.00;;;;;;;12.68;64.63;98448.63;5094340;28;20196;-51
2022/06/01 00:03:18;;;;;;;5.50;1.90;;;;;;;12.66;66.29;98438.31;5093807;28;20588;-51
2022/06/01 00:05:46;;;;;;;2.07;1.83;;;;;;;12.58;66.75;98440.16;5093545;28;20684;-51
2022/06/01 00:08:13;;;;;;;2.50;1.90;;;;;;;12.48;66.92;98440.34;5093733;28;20210;-51
2022/06/01 00:10:41;;;;;;;4.03;2.03;;;;;;;12.39;66.97;98436.94;5094289;28;20231;-50
2022/06/01 00:13:09;;;;;;;2.90;2.17;;;;;;;12.38;67.26;98451.00;5094801;28;20198;-51
2022/06/01 00:15:37;;;;;;;3.00;2.00;;;;;;;12.31;68.14;98444.78;5098064;28;20217;-50
2022/06/01 00:18:04;;;;;;;2.17;1.80;;;;;;;12.30;67.18;98445.78;5098126;28;20203;-50
2022/06/01 00:20:49;;;;;;;2.83;1.90;;;;;;;12.30;65.95;98445.78;5098807;28;20568;-52
2022/06/01 00:23:17;;;;;;;3.87;1.70;;;;;;;12.29;67.16;98446.75;5096652;28;20192;-50
2022/06/01 00:25:44;;;;;;;4.30;2.10;;;;;;;12.28;67.48;98442.50;5097807;28;20213;-51
2022/06/01 00:28:13;;;;;;;5.00;1.90;;;;;;;12.29;67.82;98441.53;5097618;28;20233;-53
2022/06/01 00:30:40;;;;;;;4.73;2.07;;;;;;;12.27;68.10;98435.63;5096560;28;20197;-51
2022/06/01 00:33:08;;;;;;;4.20;2.20;;;;;;;12.21;68.32;98440.56;5097763;28;20199;-51
2022/06/01 00:35:35;;;;;;;6.27;2.10;;;;;;;12.17;68.58;98439.25;5097761;28;20272;-51
2022/06/01 00:38:02;;;;;;;3.87;2.20;;;;;;;12.10;68.68;98440.91;5097747;28;20287;-51
2022/06/01 00:40:31;;;;;;;2.77;1.93;;;;;;;12.16;66.55;98442.06;5096402;28;20640;-50
2022/06/01 00:43:00;;;;;;;3.43;1.90;;;;;;;12.22;67.50;98446.59;5097400;28;20188;-50
2022/06/01 00:45:31;;;;;;;2.03;1.67;;;;;;;12.27;67.32;98446.91;5097896;28;20208;-51
2022/06/01 00:47:58;;;;;;;3.77;1.77;;;;;;;12.28;67.80;98439.91;5097370;28;20200;-53
2022/06/01 00:50:31;;;;;;;2.97;2.07;;;;;;;12.27;67.88;98443.50;5098046;28;20192;-51
2022/06/01 00:53:02;;;;;;;4.37;2.20;;;;;;;12.29;69.48;98438.91;5097656;28;20181;-51
2022/06/01 00:55:33;;;;;;;2.93;2.10;;;;;;;12.21;68.75;98437.94;5097839;28;20180;-51
2022/06/01 00:58:04;;;;;;;2.23;1.67;;;;;;;12.16;67.71;98434.19;5096987;28;20209;-52
2022/06/01 01:00:38;;;;;;;2.57;1.90;;;;;;;12.15;68.00;98437.81;5097226;28;20193;-52
2022/06/01 01:03:10;;;;;;;3.23;1.80;;;;;;;12.17;67.52;98433.22;5097441;28;20176;-52
2022/06/01 01:05:41;;;;;;;5.50;2.17;;;;;;;12.15;69.08;98430.75;5096973;28;20572;-50
2022/06/01 01:08:09;;;;;;;4.17;2.10;;;;;;;12.13;68.33;98429.28;5097058;28;20208;-53
2022/06/01 01:10:36;;;;;;;3.50;2.20;;;;;;;12.13;68.03;98430.09;5096979;28;20192;-52
2022/06/01 01:13:09;;;;;;;3.47;2.23;;;;;;;12.11;69.38;98424.22;5097082;28;20649;-50
2022/06/01 01:15:40;;;;;;;4.30;1.90;;;;;;;12.06;67.76;98423.91;5097231;28;20222;-51
2022/06/01 01:18:12;;;;;;;3.47;2.03;;;;;;;12.04;68.49;98420.63;5096744;28;20208;-52
2022/06/01 01:20:47;;;;;;;3.70;2.20;;;;;;;11.93;68.61;98427.78;5096952;28;20185;-51
2022/06/01 01:23:21;;;;;;;5.80;2.03;;;;;;;11.90;68.69;98424.69;5095479;28;20242;-52
2022/06/01 01:25:51;;;;;;;3.80;2.30;;;;;;;11.87;69.87;98422.41;5096345;28;20196;-50
2022/06/01 01:28:18;;;;;;;7.80;2.30;;;;;;;11.84;70.18;98426.16;5096461;28;20209;-52
2022/06/01 01:30:59;;;;;;;3.37;2.20;;;;;;;11.78;68.81;98432.88;5096563;28;20184;-50
2022/06/01 01:33:29;;;;;;;2.10;1.70;;;;;;;11.75;70.04;98435.81;5096521;28;20193;-50
2022/06/01 01:35:59;;;;;;;3.57;2.20;;;;;;;11.63;69.27;98437.13;5096229;28;20664;-51
2022/06/01 01:38:35;;;;;;;4.73;1.90;;;;;;;11.56;68.91;98431.72;5096160;28;20711;-51
2022/06/01 01:41:08;;;;;;;4.60;2.20;;;;;;;11.49;69.31;98431.53;5097079;28;20172;-51
2022/06/01 01:43:40;;;;;;;2.00;1.70;;;;;;;11.43;69.16;98429.56;5096383;28;20201;-51
2022/06/01 01:46:08;;;;;;;2.47;1.90;;;;;;;11.36;70.21;98423.34;5096581;28;20205;-51
2022/06/01 01:48:53;;;;;;;5.23;2.27;;;;;;;11.27;70.39;98419.09;5095980;28;20222;-50
2022/06/01 01:51:22;;;;;;;3.10;1.90;;;;;;;11.20;70.83;98422.34;5094711;28;20259;-50
2022/06/01 01:53:49;;;;;;;4.07;2.07;;;;;;;11.11;72.23;98425.94;5096294;28;20664;-52
2022/06/01 01:56:37;;;;;;;2.03;1.83;;;;;;;11.02;71.75;98419.84;5095763;28;20659;-50
2022/06/01 01:59:19;;;;;;;4.63;2.00;;;;;;;10.95;71.57;98418.84;5095618;28;20234;-51
2022/06/01 02:01:56;;;;;;;2.17;1.93;;;;;;;10.93;70.89;98413.78;5096165;28;20186;-51
2022/06/01 02:07:23;;;;;;;3.80;2.10;;;;;;;10.88;72.21;98420.44;5095456;28;20303;-52
2022/06/01 02:12:43;;;;;;;2.30;2.00;;;;;;;10.75;71.81;98411.25;5095673;28;20267;-53
2022/06/01 02:15:15;;;;;;;4.27;2.10;;;;;;;10.74;71.30;98408.81;5095774;28;20172;-51
2022/06/01 02:17:49;;;;;;;7.77;2.57;;;;;;;10.67;73.13;98413.03;5095133;28;20241;-52
2022/06/01 02:20:29;;;;;;;8.47;2.53;;;;;;;10.61;72.58;98410.06;5094657;28;20646;-52
2022/06/01 02:22:57;;;;;;;3.57;2.00;;;;;;;10.63;73.68;98412.50;5095299;28;20515;-50
2022/06/01 02:25:47;;;;;;;6.17;2.37;;;;;;;10.58;75.21;98415.59;5095754;28;20212;-51
2022/06/01 02:28:15;;;;;;;3.13;2.10;;;;;;;10.50;74.16;98406.94;5095023;28;20269;-50
2022/06/01 02:30:45;;;;;;;4.10;2.27;;;;;;;10.45;73.38;98410.81;5095195;28;20244;-50
2022/06/01 02:33:18;;;;;;;3.90;2.37;;;;;;;10.47;75.06;98408.03;5095489;28;20234;-50
2022/06/01 02:35:48;;;;;;;6.63;2.37;;;;;;;10.47;74.21;98411.50;5094749;28;20225;-50
2022/06/01 02:38:21;;;;;;;3.20;2.17;;;;;;;10.36;73.40;98411.72;5094889;28;20217;-50
2022/06/01 02:40:48;;;;;;;3.13;1.97;;;;;;;10.30;74.31;98407.13;5095078;28;20197;-50
2022/06/01 02:43:51;;;;;;;5.37;2.30;;;;;;;10.26;74.47;98401.38;5095404;28;20203;-50
2022/06/01 02:46:18;;;;;;;4.13;2.40;;;;;;;10.27;75.26;98408.22;5094898;28;20751;-50
2022/06/01 02:48:46;;;;;;;3.83;2.10;;;;;;;10.13;74.59;98412.22;5093450;28;20210;-51
2022/06/01 02:51:14;;;;;;;2.93;2.23;;;;;;;10.12;74.87;98412.38;5095081;28;20193;-50
2022/06/01 02:53:41;;;;;;;3.33;2.57;;;;;;;10.01;75.66;98411.69;5094843;28;20603;-50
2022/06/01 02:56:08;;;;;;;2.60;2.20;;;;;;;9.95;75.20;98416.66;5094958;28;20178;-50
2022/06/01 02:58:37;;;;;;;3.37;2.30;;;;;;;9.93;75.34;98409.00;5094240;28;20237;-51
2022/06/01 03:01:06;;;;;;;3.43;2.23;;;;;;;9.87;76.11;98420.03;5093293;28;20193;-50
2022/06/01 03:03:33;;;;;;;5.97;2.50;;;;;;;9.83;75.79;98416.09;5094755;28;20197;-50
2022/06/01 03:06:01;;;;;;;3.80;2.17;;;;;;;9.81;76.66;98418.84;5094310;28;20214;-51
2022/06/01 03:08:28;;;;;;;5.73;2.60;;;;;;;9.78;76.92;98426.16;5096564;28;20211;-51
2022/06/01 03:11:14;;;;;;;2.27;2.03;;;;;;;9.89;75.39;98421.50;5095361;28;20210;-50
2022/06/01 03:13:41;;;;;;;7.30;2.90;;;;;;;9.84;76.09;98422.94;5094467;28;20197;-51
2022/06/01 03:16:09;;;;;;;4.40;2.50;;;;;;;9.84;76.03;98428.97;5095023;28;20183;-50
2022/06/01 03:18:36;;;;;;;3.57;2.20;;;;;;;9.76;76.49;98421.09;5094210;28;20207;-50
2022/06/01 03:21:04;;;;;;;3.37;2.37;;;;;;;9.75;77.26;98417.66;5094392;28;20659;-50
2022/06/01 03:23:31;;;;;;;5.00;2.20;;;;;;;9.75;77.03;98422.88;5094956;28;20222;-50
2022/06/01 03:25:58;;;;;;;4.90;2.60;;;;;;;9.68;76.60;98421.00;5094121;28;20567;-50
2022/06/01 03:28:25;;;;;;;3.13;2.40;;;;;;;9.71;77.89;98423.31;5093855;28;20264;-50
2022/06/01 03:30:53;;;;;;;3.60;2.50;;;;;;;9.65;78.16;98422.16;5092750;28;20209;-50
2022/06/01 03:33:39;;;;;;;2.50;2.10;;;;;;;9.68;78.21;98423.63;5094713;28;20316;-50
2022/06/01 03:36:08;;;;;;;5.63;2.97;;;;;;;9.73;78.64;98431.81;5094610;28;20191;-51
2022/06/01 03:38:36;;;;;;;4.30;2.30;;;;;;;9.69;78.28;98420.03;5092660;28;20314;-52
2022/06/01 03:41:03;;;;;;;4.27;2.37;;;;;;;9.69;77.42;98425.25;5094640;28;20237;-51
2022/06/01 03:43:30;;;;;;;2.67;2.20;;;;;;;9.70;77.90;98419.91;5094103;28;20564;-50
2022/06/01 03:45:58;;;;;;;2.70;2.03;;;;;;;9.77;76.74;98427.94;5092671;28;20269;-52
2022/06/01 03:48:29;;;;;;;3.43;2.50;;;;;;;9.92;76.88;98416.97;5092941;28;20207;-52
2022/06/01 03:50:58;;;;;;;2.97;2.20;;;;;;;9.95;77.35;98419.28;5092972;28;20191;-50
2022/06/01 03:53:29;;;;;;;5.43;2.90;;;;;;;9.98;77.31;98424.19;5094390;28;20587;-51
2022/06/01 03:55:56;;;;;;;3.73;2.10;;;;;;;9.94;77.82;98417.63;5093833;28;20221;-51
2022/06/01 03:58:25;;;;;;;3.30;2.30;;;;;;;10.00;76.68;98423.06;5093182;28;20260;-50
2022/06/01 04:00:52;;;;;;;7.07;2.30;;;;;;;10.09;74.99;98423.94;5093817;28;20188;-52
2022/06/01 04:03:20;;;;;;;6.77;2.33;;;;;;;10.13;76.85;98421.84;5093600;28;20260;-50
2022/06/01 04:05:48;;;;;;;3.60;2.13;;;;;;;10.18;75.96;98430.84;5093715;28;20277;-50
2022/06/01 04:08:16;;;;;;;2.33;2.13;;;;;;;10.21;76.32;98418.47;5093404;28;20217;-51
2022/06/01 04:10:44;;;;;;;2.33;2.13;;;;;;;10.21;77.06;98427.09;5092803;28;20187;-50
2022/06/01 04:13:12;;;;;;;5.33;2.47;;;;;;;10.19;77.50;98423.81;5092250;28;20233;-50
2022/06/01 04:15:39;;;;;;;4.23;2.20;;;;;;;10.22;76.97;98425.31;5093429;28;20190;-50
2022/06/01 04:18:07;;;;;;;4.43;2.20;;;;;;;10.23;76.91;98425.16;5093194;28;20208;-51
2022/06/01 04:20:35;;;;;;;4.80;1.90;;;;;;;10.29;76.70;98427.16;5093717;28;20227;-50
2022/06/01 04:23:03;;;;;;;3.93;2.40;;;;;;;10.39;76.51;98429.72;5093934;28;20198;-50
2022/06/01 04:25:31;;;;;;;2.20;1.87;;;;;;;10.46;75.72;98435.13;5093495;28;20234;-51
2022/06/01 04:27:59;;;;;;;2.40;1.90;;;;;;;10.48;75.60;98426.19;5093441;28;20216;-50
2022/06/01 04:30:27;;;;;;;4.10;2.23;;;;;;;10.52;75.52;98425.88;5093273;28;20186;-51
2022/06/01 04:32:55;;;;;;;2.27;1.83;;;;;;;10.55;74.97;98430.78;5093837;28;20188;-51
2022/06/01 04:35:24;;;;;;;2.40;1.53;;;;;;;10.61;75.20;98422.28;5093894;28;20183;-50
2022/06/01 04:37:52;;;;;;;3.13;2.00;;;;;;;10.73;74.87;98428.88;5093456;28;20205;-50
2022/06/01 04:40:22;;;;;;;2.97;2.00;;;;;;;10.83;74.58;98426.16;5093965;28;20197;-51
2022/06/01 04:42:51;;;;;;;3.43;2.03;;;;;;;10.95;73.76;98424.06;5094360;28;20172;-53
2022/06/01 04:45:19;;;;;;;2.80;1.70;;;;;;;11.08;73.28;98424.44;5096241;28;20209;-53
2022/06/01 04:47:46;;;;;;;3.70;2.10;;;;;;;11.23;72.47;98431.66;5095654;28;20678;-52
2022/06/01 04:50:13;;;;;;;3.20;1.73;;;;;;;11.34;71.74;98428.75;5094927;28;20686;-50
2022/06/01 04:52:40;;;;;;;4.17;2.33;;;;;;;11.49;71.34;98435.97;5094125;28;20186;-50
2022/06/01 04:55:08;;;;;;;2.27;2.00;;;;;;;11.57;72.40;98451.66;5094307;28;20245;-51
2022/06/01 04:57:36;;;;;;;2.33;2.10;;;;;;;11.61;70.85;98450.38;5093736;28;20208;-50
2022/06/01 05:00:07;;;;;;;4.03;2.30;;;;;;;11.70;70.68;98445.94;5095788;28;20741;-50
2022/06/01 05:02:35;;;;;;;3.13;1.90;;;;;;;11.75;71.12;98437.59;5098236;28;20185;-50
2022/06/01 05:05:02;;;;;;;4.33;2.10;;;;;;;11.80;71.06;98438.75;5098062;28;20183;-51
2022/06/01 05:07:29;;;;;;;2.47;2.03;;;;;;;11.81;71.11;98442.19;5097282;28;20211;-50
2022/06/01 05:09:56;;;;;;;3.33;2.30;;;;;;;11.85;72.95;98447.91;5098465;28;20186;-50
2022/06/01 05:12:23;;;;;;;3.97;2.23;;;;;;;11.88;73.32;98461.47;5097952;28;20652;-50
2022/06/01 05:14:50;;;;;;;3.27;2.00;;;;;;;11.87;71.71;98456.41;5098438;28;20186;-52
2022/06/01 05:17:19;;;;;;;4.00;2.17;;;;;;;11.88;72.66;98453.63;5098021;28;20183;-51
2022/06/01 05:19:47;;;;;;;3.00;2.00;;;;;;;11.95;72.43;98454.59;5096990;28;20200;-50
2022/06/01 05:22:14;;;;;;;3.63;2.37;;;;;;;11.89;73.09;98450.03;5097607;28;20187;-50
2022/06/01 05:24:59;;;;;;;2.33;2.13;;;;;;;11.86;73.47;98454.78;5097905;28;20200;-50
2022/06/01 05:27:27;;;;;;;2.97;2.47;;;;;;;11.86;73.86;98454.78;5097669;28;20237;-51
2022/06/01 05:29:55;;;;;;;4.03;2.13;;;;;;;11.83;74.78;98453.28;5097599;28;20192;-50
2022/06/01 05:32:22;;;;;;;4.13;2.27;;;;;;;11.82;75.41;98447.25;5097581;28;20590;-52
2022/06/01 05:34:50;;;;;;;3.03;2.20;;;;;;;11.83;76.16;98450.69;5095972;28;20229;-50
2022/06/01 05:37:16;;;;;;;4.67;2.50;;;;;;;11.78;75.61;98448.56;5097959;28;20192;-50
2022/06/01 05:39:43;;;;;;;5.17;2.53;;;;;;;11.85;74.79;98450.53;5097564;28;20641;-50
2022/06/01 05:42:10;;;;;;;6.93;2.30;;;;;;;11.95;75.16;98451.19;5097170;28;20184;-50
2022/06/01 05:44:38;;;;;;;4.60;2.30;;;;;;;12.09;74.88;98453.19;5097181;28;20184;-53
2022/06/01 05:47:06;;;;;;;2.87;2.40;;;;;;;12.33;74.23;98458.53;5095674;28;20263;-50
2022/06/01 05:49:34;;;;;;;3.53;2.43;;;;;;;12.55;73.08;98454.38;5095818;28;20188;-50
2022/06/01 05:52:01;;;;;;;2.53;2.33;;;;;;;12.79;73.48;98461.34;5095544;28;20176;-52
2022/06/01 05:54:29;;;;;;;2.87;2.00;;;;;;;13.03;73.15;98457.00;5095908;28;20272;-52
2022/06/01 05:56:56;;;;;;;6.00;2.20;;;;;;;13.27;72.56;98463.91;5096907;28;20181;-52
2022/06/01 05:59:24;;;;;;;5.07;2.23;;;;;;;13.47;72.39;98463.50;5097260;28;20226;-53
2022/06/01 06:01:51;;;;;;;6.43;2.50;;;;;;;13.68;72.13;98462.06;5095869;28;20225;-51
2022/06/01 06:04:18;;;;;;;3.60;2.10;;;;;;;13.83;73.27;98455.06;5094799;28;20231;-50
2022/06/01 06:06:47;;;;;;;4.03;2.33;;;;;;;14.06;73.49;98451.59;5095887;28;20221;-50
2022/06/01 06:09:14;;;;;;;3.80;2.30;;;;;;;14.30;72.24;98453.19;5095447;28;20252;-52
2022/06/01 06:12:00;;;;;;;6.33;2.57;;;;;;;14.59;73.05;98461.25;5095504;28;20250;-50
2022/06/01 06:14:27;;;;;;;5.67;2.80;;;;;;;14.80;70.43;98451.88;5095776;28;20218;-50
2022/06/01 06:16:54;;;;;;;4.20;2.43;;;;;;;15.06;70.22;98456.63;5095801;28;20662;-50
2022/06/01 06:19:21;;;;;;;7.17;2.50;;;;;;;15.24;70.78;98464.13;5095243;28;20212;-52
2022/06/01 06:21:50;;;;;;;6.97;2.23;;;;;;;15.46;68.08;98467.59;5094022;28;20191;-51
2022/06/01 06:24:20;;;;;;;4.00;2.70;;;;;;;15.74;63.97;98471.31;5094494;28;20194;-53
2022/06/01 06:26:48;;;;;;;4.43;2.27;;;;;;;15.94;63.87;98469.69;5095827;28;20217;-52
2022/06/01 06:29:17;;;;;;;5.27;2.53;;;;;;;16.26;62.58;98469.34;5095662;28;20287;-52
2022/06/01 06:31:45;;;;;;;4.83;2.53;;;;;;;16.44;61.40;98481.22;5096182;28;20186;-53
2022/06/01 06:34:12;;;;;;;5.47;3.03;;;;;;;16.61;60.66;98468.53;5095711;28;20266;-51
2022/06/01 06:36:39;;;;;;;3.33;2.60;;;;;;;16.81;60.97;98473.94;5094962;28;20192;-53
2022/06/01 06:39:08;;;;;;;4.87;2.67;;;;;;;16.86;60.18;98476.81;5094480;28;20255;-53
2022/06/01 06:41:35;;;;;;;3.37;2.73;;;;;;;16.99;60.23;98478.72;5095002;28;20184;-51
2022/06/01 06:44:01;;;;;;;5.47;2.80;;;;;;;17.13;60.31;98481.41;5094779;28;20233;-50
2022/06/01 06:46:30;;;;;;;5.60;3.20;;;;;;;17.25;59.26;98493.81;5093305;28;20255;-50
2022/06/01 06:48:57;;;;;;;4.97;3.30;;;;;;;17.21;59.09;98489.16;5094124;28;20287;-50
2022/06/01 06:51:25;;;;;;;4.03;3.40;;;;;;;17.18;57.86;98495.63;5094019;28;20188;-53
2022/06/01 06:53:52;;;;;;;7.10;3.70;;;;;;;17.04;58.86;98493.94;5094169;28;20199;-50
2022/06/01 06:56:22;;;;;;;4.83;3.40;;;;;;;17.14;57.93;98494.38;5094274;28;20674;-51
2022/06/01 06:58:50;;;;;;;7.93;3.87;;;;;;;17.20;58.16;98498.88;5094139;28;20201;-50
2022/06/01 07:01:18;;;;;;;6.37;3.83;;;;;;;17.09;57.86;98502.91;5093226;28;20590;-50
2022/06/01 07:03:45;;;;;;;5.13;3.40;;;;;;;17.03;58.65;98505.47;5094277;28;20215;-50
2022/06/01 07:06:13;;;;;;;4.90;3.17;;;;;;;17.03;58.65;98510.75;5094135;28;20205;-50
2022/06/01 07:08:43;;;;;;;8.13;3.70;;;;;;;17.10;57.78;98515.06;5093712;28;20218;-50
2022/06/01 07:11:11;;;;;;;4.20;3.67;;;;;;;17.05;57.79;98522.75;5093904;28;20195;-50
2022/06/01 07:13:40;;;;;;;10.80;4.33;;;;;;;17.10;58.96;98517.72;5093980;28;20275;-51
2022/06/01 07:16:10;;;;;;;5.77;4.13;;;;;;;16.94;59.10;98518.84;5093726;28;20187;-51
2022/06/01 07:18:39;;;;;;;5.27;4.17;;;;;;;17.09;60.66;98518.72;5093538;28;20285;-53
2022/06/01 07:21:08;;;;;;;10.87;3.93;;;;;;;17.33;59.17;98521.88;5093710;28;20653;-51
2022/06/01 07:23:35;;;;;;;8.03;4.27;;;;;;;17.45;58.98;98521.31;5093360;28;20535;-51
2022/06/01 07:26:03;;;;;;;10.03;4.67;;;;;;;17.41;59.36;98516.41;5093804;28;20180;-51
2022/06/01 07:28:31;;;;;;;4.93;3.83;;;;;;;17.44;60.78;98514.41;5093497;28;20268;-51
2022/06/01 07:30:59;;;;;;;8.30;4.73;;;;;;;17.39;61.54;98509.69;5093767;28;20275;-51
2022/06/01 07:33:30;;;;;;;7.10;4.10;;;;;;;17.64;61.04;98504.69;5093661;28;20240;-52
2022/06/01 07:35:58;;;;;;;4.93;4.17;;;;;;;17.80;60.10;98510.59;5093372;28;20252;-51
2022/06/01 07:43:05;;;;;;;6.53;4.20;;;;;;;17.91;60.29;98512.66;5093910;28;20223;-51
2022/06/01 07:44:52;;;;;;;7.00;4.13;;;;;;;18.06;60.12;98520.41;5093165;28;20203;-53
2022/06/01 07:47:39;;;;;;;5.40;3.63;;;;;;;17.91;61.10;98520.59;5093680;28;20223;-51
2022/06/01 07:50:08;;;;;;;6.03;4.20;;;;;;;18.14;59.34;98508.84;5092176;28;20191;-51
2022/06/01 07:52:35;;;;;;;6.57;4.13;;;;;;;18.17;60.01;98504.97;5093085;28;20193;-51
2022/06/01 07:55:04;;;;;;;5.37;3.43;;;;;;;18.40;59.52;98501.94;5093110;28;20198;-51
2022/06/01 07:57:49;;;;;;;5.77;3.73;;;;;;;18.52;60.35;98500.31;5093026;28;20265;-52
2022/06/01 08:00:17;;;;;;;7.03;3.67;;;;;;;18.63;58.18;98511.25;5093569;28;20191;-51
2022/06/01 08:02:46;;;;;;;5.13;3.60;;;;;;;18.71;58.07;98501.28;5092923;28;20603;-52
2022/06/01 08:05:16;;;;;;;6.23;3.60;;;;;;;18.71;59.94;98505.72;5092664;28;20197;-52
2022/06/01 08:07:44;;;;;;;5.03;3.33;;;;;;;18.86;57.19;98508.16;5090986;28;20220;-51
2022/06/01 08:10:13;;;;;;;5.60;3.60;;;;;;;18.95;58.02;98509.56;5092977;28;20687;-51
2022/06/01 08:15:27;;;;;;;7.27;3.53;;;;;;;18.94;57.98;98512.41;5092543;28;20587;-53
2022/06/01 08:17:57;;;;;;;6.20;2.93;;;;;;;19.09;56.94;98523.56;5092333;28;20210;-52
2022/06/01 08:20:26;;;;;;;8.37;3.70;;;;;;;19.09;55.45;98515.63;5092574;28;20273;-53
2022/06/01 08:22:53;;;;;;;5.43;3.27;;;;;;;19.25;54.76;98518.84;5092305;28;20190;-51
2022/06/01 08:25:22;;;;;;;7.33;3.00;;;;;;;19.17;56.45;98523.34;5092761;28;20198;-51
2022/06/01 08:27:50;;;;;;;4.00;3.27;;;;;;;19.16;56.09;98526.19;5091835;28;20221;-52
2022/06/01 08:30:21;;;;;;;4.20;3.50;;;;;;;19.22;55.55;98528.00;5091136;28;20190;-53
2022/06/01 08:32:49;;;;;;;4.90;3.50;;;;;;;19.06;57.08;98518.69;5092468;28;20562;-51
2022/06/01 08:35:37;;;;;;;6.23;3.33;;;;;;;19.34;55.52;98528.16;5096367;28;20201;-53
2022/06/01 08:38:06;;;;;;;5.07;2.90;;;;;;;19.36;55.13;98522.66;5096165;28;20289;-52
2022/06/01 08:40:38;;;;;;;4.50;3.20;;;;;;;19.53;54.41;98529.09;5096205;28;20541;-52
2022/06/01 08:43:10;;;;;;;6.93;3.63;;;;;;;19.42;53.26;98541.16;5096198;28;20647;-51
2022/06/01 08:45:37;;;;;;;4.20;3.03;;;;;;;19.53;54.04;98533.59;5096084;28;20665;-51
2022/06/01 08:48:06;;;;;;;7.70;3.13;;;;;;;19.52;56.40;98546.00;5095388;28;20214;-51
2022/06/01 08:50:38;;;;;;;4.83;3.43;;;;;;;19.48;55.66;98547.44;5095894;28;20182;-51
2022/06/01 08:53:08;;;;;;;5.93;3.93;;;;;;;19.82;53.97;98548.06;5094827;28;20195;-53
2022/06/01 08:55:44;;;;;;;8.97;3.60;;;;;;;19.97;53.75;98545.16;5094368;28;20561;-51
2022/06/01 08:58:15;;;;;;;5.07;3.53;;;;;;;19.87;55.03;98539.47;5095347;28;20542;-52
2022/06/01 09:00:49;;;;;;;9.10;3.50;;;;;;;19.59;54.55;98540.69;5095620;28;20185;-52
2022/06/01 09:03:27;;;;;;;3.87;3.30;;;;;;;19.39;54.56;98544.22;5095556;28;20604;-53
2022/06/01 09:06:04;;;;;;;4.87;3.60;;;;;;;19.73;54.79;98536.91;5095572;28;20241;-51
2022/06/01 09:08:39;;;;;;;5.77;3.50;;;;;;;19.59;53.89;98532.75;5095052;28;20253;-51
2022/06/01 09:11:09;;;;;;;9.90;3.50;;;;;;;19.73;54.02;98536.91;5094553;28;20549;-51
2022/06/01 09:13:54;;;;;;;3.77;3.30;;;;;;;19.91;53.34;98546.00;5095260;28;20212;-54
2022/06/01 09:16:25;;;;;;;9.10;3.87;;;;;;;20.19;51.09;98555.41;5095438;28;20183;-51
2022/06/01 09:18:55;;;;;;;5.63;3.77;;;;;;;20.05;51.62;98549.41;5094993;28;20206;-51
2022/06/01 09:24:14;;;;;;;7.07;3.83;;;;;;;20.09;50.95;98555.06;5095241;28;20189;-51
2022/06/01 09:26:57;;;;;;;6.93;3.40;;;;;;;20.23;51.51;98545.16;5095314;28;20311;-51
2022/06/01 09:29:27;;;;;;;6.07;3.33;;;;;;;20.17;51.86;98545.00;5094685;28;20280;-51
2022/06/01 09:32:01;;;;;;;5.60;3.73;;;;;;;20.29;51.71;98554.91;5094923;28;20221;-53
2022/06/01 09:34:49;;;;;;;4.77;3.43;;;;;;;20.06;53.08;98549.16;5095559;28;20200;-52
2022/06/01 09:37:23;;;;;;;10.40;4.77;;;;;;;20.27;50.96;98547.19;5094745;28;20635;-51
2022/06/01 09:39:54;;;;;;;4.47;3.40;;;;;;;20.48;50.70;98548.63;5094825;28;20648;-51
2022/06/01 09:42:26;;;;;;;6.77;3.00;;;;;;;20.74;51.55;98540.63;5093670;28;20195;-51
2022/06/01 09:44:56;;;;;;;4.97;3.07;;;;;;;20.93;50.17;98544.97;5094688;28;20226;-51
2022/06/01 09:47:39;;;;;;;3.47;2.97;;;;;;;20.69;48.75;98548.44;5094366;28;20210;-51
2022/06/01 09:50:22;;;;;;;7.10;2.80;;;;;;;20.98;48.22;98546.97;5093303;28;20192;-52
2022/06/01 09:52:55;;;;;;;5.27;3.47;;;;;;;21.00;49.10;98547.56;5094605;28;20545;-51
2022/06/01 09:55:25;;;;;;;5.27;2.73;;;;;;;21.24;48.26;98550.34;5094217;28;20199;-52
2022/06/01 09:58:07;;;;;;;5.70;3.60;;;;;;;20.83;49.43;98546.53;5094222;28;20204;-53
2022/06/01 10:06:21;;;;;;;6.10;2.77;;;;;;;21.09;47.20;98545.41;5094321;28;20266;-54
2022/06/01 10:09:09;;;;;;;6.93;2.97;;;;;;;20.99;47.82;98548.59;5093765;28;20565;-52
2022/06/01 10:11:40;;;;;;;8.47;3.07;;;;;;;21.00;46.33;98547.56;5094242;28;20196;-51
2022/06/01 10:14:19;;;;;;;7.77;3.37;;;;;;;20.85;46.29;98547.13;5092566;28;20715;-51
2022/06/01 10:17:16;;;;;;;4.43;2.90;;;;;;;21.16;46.36;98545.34;5094143;28;20188;-51
2022/06/01 10:19:49;;;;;;;7.60;3.10;;;;;;;21.32;45.12;98546.59;5094113;28;20181;-52
2022/06/01 10:22:24;;;;;;;3.93;2.60;;;;;;;21.53;45.53;98543.47;5094058;28;20184;-51
2022/06/01 10:24:57;;;;;;;4.60;2.93;;;;;;;21.60;43.86;98546.00;5093832;28;20695;-52
2022/06/01 10:27:30;;;;;;;5.90;2.80;;;;;;;21.50;45.31;98543.09;5092292;28;20550;-53
2022/06/01 10:30:07;;;;;;;7.60;2.63;;;;;;;21.53;44.68;98538.16;5093876;28;20604;-51
2022/06/01 10:32:42;;;;;;;4.47;2.50;;;;;;;21.57;43.21;98541.16;5093503;28;20236;-51
2022/06/01 10:35:15;;;;;;;2.67;2.40;;;;;;;21.53;43.15;98539.97;5093952;28;20225;-51
2022/06/01 10:37:55;;;;;;;7.60;2.47;;;;;;;21.47;44.34;98546.19;5093485;28;20300;-51
2022/06/01 10:40:32;;;;;;;7.13;2.00;;;;;;;21.81;41.22;98546.59;5093849;28;20678;-51
2022/06/01 10:43:18;;;;;;;3.33;2.20;;;;;;;21.86;40.33;98543.25;5093718;28;20190;-52
2022/06/01 10:45:51;;;;;;;3.93;2.20;;;;;;;21.89;41.24;98551.59;5093833;28;20241;-51
2022/06/01 10:48:24;;;;;;;3.83;2.53;;;;;;;22.24;42.00;98548.19;5093005;28;20208;-51
2022/06/01 10:50:58;;;;;;;3.60;2.10;;;;;;;22.48;36.60;98548.22;5093461;28;20203;-51
2022/06/01 10:53:35;;;;;;;4.57;1.93;;;;;;;22.61;37.79;98554.38;5093498;28;20252;-51
2022/06/01 10:56:04;;;;;;;2.87;1.73;;;;;;;22.11;38.46;98551.06;5093610;28;20195;-52
2022/06/01 10:58:32;;;;;;;1.80;1.70;;;;;;;22.19;37.61;98555.22;5091190;28;20302;-52
2022/06/01 11:01:09;;;;;;;4.50;2.40;;;;;;;22.04;38.41;98545.03;5093421;28;20218;-51
2022/06/01 11:03:51;;;;;;;6.73;1.90;;;;;;;22.43;37.32;98548.06;5093635;28;20524;-53
2022/06/01 11:06:29;;;;;;;3.27;2.03;;;;;;;22.12;37.88;98550.81;5093298;28;20212;-54
2022/06/01 11:09:03;;;;;;;4.10;2.10;;;;;;;22.38;38.65;98538.16;5091337;28;20237;-52
2022/06/01 11:11:48;;;;;;;4.10;2.17;;;;;;;22.75;37.65;98542.44;5093285;28;20188;-51
2022/06/01 11:14:35;;;;;;;2.30;1.47;;;;;;;23.10;35.88;98532.78;5093191;28;20264;-51
2022/06/01 11:17:10;;;;;;;7.77;2.03;;;;;;;23.39;36.43;98552.28;5092853;28;20374;-51
2022/06/01 11:19:54;;;;;;;3.87;1.63;;;;;;;23.25;34.52;98532.34;5092935;28;20188;-51
2022/06/01 11:22:36;;;;;;;4.77;1.93;;;;;;;23.32;36.18;98553.47;5093173;28;20221;-53
2022/06/01 11:25:14;;;;;;;2.33;1.90;;;;;;;23.23;33.95;98545.88;5091531;28;20648;-52
2022/06/01 11:28:04;;;;;;;2.83;2.00;;;;;;;23.06;34.33;98537.78;5092439;28;20606;-53
2022/06/01 11:30:41;;;;;;;3.93;2.03;;;;;;;23.21;35.22;98537.28;5092941;28;20209;-52
2022/06/01 11:33:15;;;;;;;5.37;2.07;;;;;;;23.13;35.94;98543.78;5092857;28;20290;-52
2022/06/01 11:35:46;;;;;;;4.53;1.73;;;;;;;22.97;35.07;98531.19;5092822;28;20290;-51
2022/06/01 11:38:19;;;;;;;4.00;2.00;;;;;;;23.06;34.79;98536.97;5092328;28;20298;-51
2022/06/01 11:40:52;;;;;;;5.67;1.77;;;;;;;23.57;34.32;98516.69;5092845;28;20193;-52
2022/06/01 11:43:28;;;;;;;3.87;2.00;;;;;;;23.15;35.67;98533.72;5092714;28;20182;-54
2022/06/01 11:45:59;;;;;;;4.03;1.93;;;;;;;23.53;34.90;98525.38;5092813;28;20261;-51
2022/06/01 11:48:31;;;;;;;3.13;1.70;;;;;;;23.62;34.39;98518.63;5091199;28;20292;-54
2022/06/01 11:51:11;;;;;;;4.10;1.87;;;;;;;23.49;35.47;98522.41;5092846;28;20182;-51
2022/06/01 11:53:45;;;;;;;3.80;2.03;;;;;;;22.26;37.72;98521.38;5092630;28;20228;-52
2022/06/01 11:56:23;;;;;;;3.37;1.50;;;;;;;22.94;36.95;98521.03;5092406;28;20213;-52
2022/06/01 11:59:06;;;;;;;4.00;2.00;;;;;;;23.40;36.53;98515.81;5092316;28;20563;-52
2022/06/01 12:01:44;;;;;;;2.57;1.77;;;;;;;23.87;36.06;98514.78;5092708;28;20199;-51
2022/06/01 12:04:30;;;;;;;5.00;2.20;;;;;;;23.22;36.50;98522.91;5092921;28;20201;-51
2022/06/01 12:07:05;;;;;;;5.17;2.10;;;;;;;22.90;37.61;98525.19;5092744;28;20185;-53
2022/06/01 12:09:40;;;;;;;1.97;1.73;;;;;;;22.83;37.64;98517.31;5093111;28;20216;-51
2022/06/01 12:12:22;;;;;;;2.60;1.70;;;;;;;23.23;36.93;98521.09;5096587;28;20188;-51
2022/06/01 12:15:00;;;;;;;3.10;1.80;;;;;;;23.25;36.70;98516.34;5096563;28;20197;-53